Theobroma, Brazil
Current Conditions -  °F | °C
As of 1:45 AM on Friday 28 Nov 2014 (Local Time) from SBPV Reporting Station
Haze Haze  
Wind Chill: 72°   Ceiling: 100
Heat Index: 72°   Visibility: 1.2mi
Dew Point: 70°   Wind: 5mph
Humidity: 94%   Direction: 150°SSE
Pressure: 29.83"   Gusts: NA
Location:  10.24°S, 62.36°W
Report Text: SBPV 280545Z 15004KT 2000 BR BKN001 BKN003 22/21 Q1010
Loading
Personal Weather Stations






























Interactive Weather Map New forecast layout! Learn more

10-Day Weather Forecast

Advertisements
Track Severe Weather on mobile